sensor_id;sensor_type;location;lat;lon;timestamp;pressure;altitude;pressure_sealevel;temperature;humidity
6829;BME280;17930;48.592;8.868;2023-05-16T00:01:46;96445.06;;;11.71;100.00
6829;BME280;17930;48.592;8.868;2023-05-16T00:04:13;96443.50;;;11.70;100.00
6829;BME280;17930;48.592;8.868;2023-05-16T00:06:39;96437.72;;;11.73;100.00
6829;BME280;17930;48.592;8.868;2023-05-16T00:09:06;96430.50;;;11.65;100.00
6829;BME280;17930;48.592;8.868;2023-05-16T00:11:34;96435.34;;;11.58;100.00
6829;BME280;17930;48.592;8.868;2023-05-16T00:14:01;96437.88;;;11.63;100.00
6829;BME280;17930;48.592;8.868;2023-05-16T00:16:28;96437.34;;;11.79;100.00
6829;BME280;17930;48.592;8.868;2023-05-16T00:18:55;96434.56;;;11.58;100.00
6829;BME280;17930;48.592;8.868;2023-05-16T00:21:22;96428.84;;;11.37;100.00
6829;BME280;17930;48.592;8.868;2023-05-16T00:23:49;96424.34;;;11.24;100.00
6829;BME280;17930;48.592;8.868;2023-05-16T00:26:17;96427.16;;;11.10;100.00
6829;BME280;17930;48.592;8.868;2023-05-16T00:28:45;96419.75;;;10.98;100.00
6829;BME280;17930;48.592;8.868;2023-05-16T00:31:11;96424.38;;;10.83;100.00
6829;BME280;17930;48.592;8.868;2023-05-16T00:33:38;96432.78;;;10.80;100.00
6829;BME280;17930;48.592;8.868;2023-05-16T00:36:05;96425.16;;;10.65;100.00
6829;BME280;17930;48.592;8.868;2023-05-16T00:38:32;96427.53;;;10.62;100.00
6829;BME280;17930;48.592;8.868;2023-05-16T00:40:59;96421.59;;;10.56;100.00
6829;BME280;17930;48.592;8.868;2023-05-16T00:43:26;96421.22;;;10.44;100.00
6829;BME280;17930;48.592;8.868;2023-05-16T00:45:53;96416.03;;;10.39;100.00
6829;BME280;17930;48.592;8.868;2023-05-16T00:48:22;96415.56;;;10.37;100.00
6829;BME280;17930;48.592;8.868;2023-05-16T00:50:49;96413.28;;;10.54;100.00
6829;BME280;17930;48.592;8.868;2023-05-16T00:53:17;96414.63;;;10.70;100.00
6829;BME280;17930;48.592;8.868;2023-05-16T00:55:44;96418.56;;;10.91;100.00
6829;BME280;17930;48.592;8.868;2023-05-16T00:58:13;96417.66;;;11.00;100.00
6829;BME280;17930;48.592;8.868;2023-05-16T01:00:40;96414.66;;;11.07;100.00
6829;BME280;17930;48.592;8.868;2023-05-16T01:03:10;96416.09;;;11.18;100.00
6829;BME280;17930;48.592;8.868;2023-05-16T01:05:37;96416.38;;;11.34;100.00
6829;BME280;17930;48.592;8.868;2023-05-16T01:08:03;96414.22;;;11.36;100.00
6829;BME280;17930;48.592;8.868;2023-05-16T01:10:35;96421.72;;;11.43;100.00
6829;BME280;17930;48.592;8.868;2023-05-16T01:13:10;96422.75;;;11.42;100.00
6829;BME280;17930;48.592;8.868;2023-05-16T01:15:42;96416.16;;;11.49;100.00
6829;BME280;17930;48.592;8.868;2023-05-16T01:18:18;96415.56;;;11.52;100.00
6829;BME280;17930;48.592;8.868;2023-05-16T01:20:54;96417.06;;;11.58;100.00
6829;BME280;17930;48.592;8.868;2023-05-16T01:23:38;96413.50;;;11.68;100.00
6829;BME280;17930;48.592;8.868;2023-05-16T01:26:12;96411.69;;;11.68;100.00
6829;BME280;17930;48.592;8.868;2023-05-16T01:28:40;96410.59;;;11.69;100.00
6829;BME280;17930;48.592;8.868;2023-05-16T01:31:07;96411.16;;;11.66;100.00
6829;BME280;17930;48.592;8.868;2023-05-16T01:33:34;96418.66;;;11.73;100.00
6829;BME280;17930;48.592;8.868;2023-05-16T01:36:06;96421.56;;;11.71;100.00
6829;BME280;17930;48.592;8.868;2023-05-16T01:38:41;96423.78;;;11.77;100.00
6829;BME280;17930;48.592;8.868;2023-05-16T01:41:16;96423.50;;;11.79;100.00
6829;BME280;17930;48.592;8.868;2023-05-16T01:43:47;96423.19;;;11.67;100.00
6829;BME280;17930;48.592;8.868;2023-05-16T01:46:18;96422.78;;;11.74;100.00
6829;BME280;17930;48.592;8.868;2023-05-16T01:48:51;96418.78;;;11.81;100.00
6829;BME280;17930;48.592;8.868;2023-05-16T01:51:20;96421.75;;;11.75;100.00
6829;BME280;17930;48.592;8.868;2023-05-16T01:53:48;96425.09;;;11.62;100.00
6829;BME280;17930;48.592;8.868;2023-05-16T01:56:17;96422.28;;;11.58;100.00
6829;BME280;17930;48.592;8.868;2023-05-16T01:58:44;96426.25;;;11.56;100.00
6829;BME280;17930;48.592;8.868;2023-05-16T02:01:12;96425.28;;;11.65;100.00
6829;BME280;17930;48.592;8.868;2023-05-16T02:03:39;96421.28;;;11.73;100.00
6829;BME280;17930;48.592;8.868;2023-05-16T02:06:06;96425.78;;;11.67;100.00
6829;BME280;17930;48.592;8.868;2023-05-16T02:08:33;96424.94;;;11.72;100.00
6829;BME280;17930;48.592;8.868;2023-05-16T02:10:59;96417.38;;;11.70;100.00
6829;BME280;17930;48.592;8.868;2023-05-16T02:13:27;96423.09;;;11.72;100.00
6829;BME280;17930;48.592;8.868;2023-05-16T02:15:54;96425.66;;;11.59;100.00
6829;BME280;17930;48.592;8.868;2023-05-16T02:18:20;96430.59;;;11.60;100.00
6829;BME280;17930;48.592;8.868;2023-05-16T02:20:48;96435.91;;;11.55;100.00
6829;BME280;17930;48.592;8.868;2023-05-16T02:23:15;96431.25;;;11.52;100.00
6829;BME280;17930;48.592;8.868;2023-05-16T02:25:41;96433.13;;;11.47;100.00
6829;BME280;17930;48.592;8.868;2023-05-16T02:28:08;96434.38;;;11.54;100.00
6829;BME280;17930;48.592;8.868;2023-05-16T02:30:36;96431.81;;;11.49;100.00
6829;BME280;17930;48.592;8.868;2023-05-16T02:33:03;96432.03;;;11.53;100.00
6829;BME280;17930;48.592;8.868;2023-05-16T02:35:29;96433.56;;;11.54;100.00
6829;BME280;17930;48.592;8.868;2023-05-16T02:37:56;96436.88;;;11.59;100.00
6829;BME280;17930;48.592;8.868;2023-05-16T02:40:23;96430.66;;;11.55;100.00
6829;BME280;17930;48.592;8.868;2023-05-16T02:42:49;96430.00;;;11.50;100.00
6829;BME280;17930;48.592;8.868;2023-05-16T02:45:16;96433.91;;;11.47;100.00
6829;BME280;17930;48.592;8.868;2023-05-16T02:47:44;96429.44;;;11.53;100.00
6829;BME280;17930;48.592;8.868;2023-05-16T02:50:10;96427.41;;;11.45;100.00
6829;BME280;17930;48.592;8.868;2023-05-16T02:52:38;96426.09;;;11.47;100.00
6829;BME280;17930;48.592;8.868;2023-05-16T02:55:05;96418.25;;;11.47;100.00
6829;BME280;17930;48.592;8.868;2023-05-16T02:57:32;96417.22;;;11.48;100.00
6829;BME280;17930;48.592;8.868;2023-05-16T02:59:59;96424.03;;;11.44;100.00
6829;BME280;17930;48.592;8.868;2023-05-16T03:02:25;96426.09;;;11.47;100.00
6829;BME280;17930;48.592;8.868;2023-05-16T03:04:53;96420.78;;;11.52;100.00
6829;BME280;17930;48.592;8.868;2023-05-16T03:07:20;96419.25;;;11.51;100.00
6829;BME280;17930;48.592;8.868;2023-05-16T03:09:47;96416.16;;;11.49;100.00
6829;BME280;17930;48.592;8.868;2023-05-16T03:12:13;96416.16;;;11.49;100.00
6829;BME280;17930;48.592;8.868;2023-05-16T03:14:40;96419.28;;;11.46;100.00
6829;BME280;17930;48.592;8.868;2023-05-16T03:17:07;96408.59;;;11.48;100.00
6829;BME280;17930;48.592;8.868;2023-05-16T03:19:33;96425.16;;;11.38;100.00
6829;BME280;17930;48.592;8.868;2023-05-16T03:22:02;96421.72;;;11.43;100.00
6829;BME280;17930;48.592;8.868;2023-05-16T03:24:28;96422.16;;;11.50;100.00
6829;BME280;17930;48.592;8.868;2023-05-16T03:26:55;96417.44;;;11.47;100.00
6829;BME280;17930;48.592;8.868;2023-05-16T03:29:21;96436.00;;;11.45;100.00
6829;BME280;17930;48.592;8.868;2023-05-16T03:31:48;96423.47;;;11.47;100.00
6829;BME280;17930;48.592;8.868;2023-05-16T03:34:15;96421.50;;;11.39;100.00
6829;BME280;17930;48.592;8.868;2023-05-16T03:36:41;96428.69;;;11.47;100.00
6829;BME280;17930;48.592;8.868;2023-05-16T03:39:09;96422.94;;;11.50;100.00
6829;BME280;17930;48.592;8.868;2023-05-16T03:41:36;96431.81;;;11.49;100.00
6829;BME280;17930;48.592;8.868;2023-05-16T03:44:03;96425.16;;;11.38;100.00
6829;BME280;17930;48.592;8.868;2023-05-16T03:46:30;96434.97;;;11.46;100.00
6829;BME280;17930;48.592;8.868;2023-05-16T03:48:56;96426.22;;;11.37;100.00
6829;BME280;17930;48.592;8.868;2023-05-16T03:51:23;96429.59;;;11.38;100.00
6829;BME280;17930;48.592;8.868;2023-05-16T03:53:50;96425.06;;;11.48;100.00
6829;BME280;17930;48.592;8.868;2023-05-16T03:56:18;96429.72;;;11.51;100.00
6829;BME280;17930;48.592;8.868;2023-05-16T03:58:46;96428.56;;;11.57;100.00
6829;BME280;17930;48.592;8.868;2023-05-16T04:01:13;96426.38;;;11.64;100.00
6829;BME280;17930;48.592;8.868;2023-05-16T04:03:39;96433.69;;;11.62;100.00
6829;BME280;17930;48.592;8.868;2023-05-16T04:06:06;96433.63;;;11.67;100.00
6829;BME280;17930;48.592;8.868;2023-05-16T04:08:33;96434.22;;;11.64;100.00
6829;BME280;17930;48.592;8.868;2023-05-16T04:11:00;96428.41;;;11.67;100.00
6829;BME280;17930;48.592;8.868;2023-05-16T04:13:28;96437.72;;;11.73;100.00
6829;BME280;17930;48.592;8.868;2023-05-16T04:15:55;96436.03;;;11.64;100.00
6829;BME280;17930;48.592;8.868;2023-05-16T04:18:21;96436.16;;;11.72;100.00
6829;BME280;17930;48.592;8.868;2023-05-16T04:20:48;96440.97;;;11.65;100.00
6829;BME280;17930;48.592;8.868;2023-05-16T04:23:15;96443.09;;;11.63;100.00
6829;BME280;17930;48.592;8.868;2023-05-16T04:25:42;96440.78;;;11.62;100.00
6829;BME280;17930;48.592;8.868;2023-05-16T04:28:08;96442.31;;;11.63;100.00
6829;BME280;17930;48.592;8.868;2023-05-16T04:30:36;96444.06;;;11.67;100.00
6829;BME280;17930;48.592;8.868;2023-05-16T04:33:03;96448.75;;;11.83;100.00
6829;BME280;17930;48.592;8.868;2023-05-16T04:35:30;96446.72;;;11.80;100.00
6829;BME280;17930;48.592;8.868;2023-05-16T04:37:57;96456.69;;;11.78;100.00
6829;BME280;17930;48.592;8.868;2023-05-16T04:40:24;96443.34;;;11.80;100.00
6829;BME280;17930;48.592;8.868;2023-05-16T04:42:52;96446.44;;;11.82;100.00
6829;BME280;17930;48.592;8.868;2023-05-16T04:45:19;96442.88;;;11.91;100.00
6829;BME280;17930;48.592;8.868;2023-05-16T04:47:47;96451.09;;;11.85;100.00
6829;BME280;17930;48.592;8.868;2023-05-16T04:50:14;96453.22;;;11.83;100.00
6829;BME280;17930;48.592;8.868;2023-05-16T04:52:42;96465.81;;;11.81;100.00
6829;BME280;17930;48.592;8.868;2023-05-16T04:55:09;96464.56;;;11.92;100.00
6829;BME280;17930;48.592;8.868;2023-05-16T04:57:45;96464.00;;;11.95;100.00
6829;BME280;17930;48.592;8.868;2023-05-16T05:00:14;96457.13;;;11.99;100.00
6829;BME280;17930;48.592;8.868;2023-05-16T05:02:42;96461.47;;;11.90;100.00
6829;BME280;17930;48.592;8.868;2023-05-16T05:05:10;96460.19;;;11.87;100.00
6829;BME280;17930;48.592;8.868;2023-05-16T05:07:37;96467.34;;;11.82;100.00
6829;BME280;17930;48.592;8.868;2023-05-16T05:10:04;96461.94;;;11.92;100.00
6829;BME280;17930;48.592;8.868;2023-05-16T05:12:31;96465.47;;;12.01;100.00
6829;BME280;17930;48.592;8.868;2023-05-16T05:14:58;96472.66;;;12.09;100.00
6829;BME280;17930;48.592;8.868;2023-05-16T05:17:25;96479.16;;;12.11;100.00
6829;BME280;17930;48.592;8.868;2023-05-16T05:19:52;96470.53;;;12.11;100.00
6829;BME280;17930;48.592;8.868;2023-05-16T05:22:19;96471.66;;;12.05;100.00
6829;BME280;17930;48.592;8.868;2023-05-16T05:24:46;96468.56;;;12.03;100.00
6829;BME280;17930;48.592;8.868;2023-05-16T05:27:13;96465.38;;;12.06;100.00
6829;BME280;17930;48.592;8.868;2023-05-16T05:29:40;96473.72;;;12.08;100.00
6829;BME280;17930;48.592;8.868;2023-05-16T05:32:07;96471.00;;;12.13;100.00
6829;BME280;17930;48.592;8.868;2023-05-16T05:34:33;96477.50;;;12.15;100.00
6829;BME280;17930;48.592;8.868;2023-05-16T05:37:00;96479.94;;;12.25;100.00
6829;BME280;17930;48.592;8.868;2023-05-16T05:39:28;96474.03;;;12.20;100.00
6829;BME280;17930;48.592;8.868;2023-05-16T05:41:54;96470.25;;;12.26;100.00
6829;BME280;17930;48.592;8.868;2023-05-16T05:44:21;96478.91;;;12.26;100.00
6829;BME280;17930;48.592;8.868;2023-05-16T05:46:48;96482.56;;;12.25;100.00
6829;BME280;17930;48.592;8.868;2023-05-16T05:49:15;96473.44;;;12.23;100.00
6829;BME280;17930;48.592;8.868;2023-05-16T05:51:42;96482.63;;;12.07;100.00
6829;BME280;17930;48.592;8.868;2023-05-16T05:54:09;96484.06;;;11.99;100.00
6829;BME280;17930;48.592;8.868;2023-05-16T05:56:37;96486.41;;;12.14;100.00
6829;BME280;17930;48.592;8.868;2023-05-16T05:59:03;96491.28;;;12.21;100.00
6829;BME280;17930;48.592;8.868;2023-05-16T06:01:30;96484.13;;;12.26;100.00
6829;BME280;17930;48.592;8.868;2023-05-16T06:03:57;96480.94;;;12.42;100.00
6829;BME280;17930;48.592;8.868;2023-05-16T06:06:24;96483.84;;;12.27;100.00
6829;BME280;17930;48.592;8.868;2023-05-16T06:08:50;96484.88;;;12.27;100.00
6829;BME280;17930;48.592;8.868;2023-05-16T06:11:17;96495.66;;;12.38;100.00
6829;BME280;17930;48.592;8.868;2023-05-16T06:13:45;96499.25;;;12.42;100.00
6829;BME280;17930;48.592;8.868;2023-05-16T06:16:12;96492.47;;;12.41;100.00
6829;BME280;17930;48.592;8.868;2023-05-16T06:18:38;96499.03;;;12.26;100.00
6829;BME280;17930;48.592;8.868;2023-05-16T06:21:05;96505.06;;;12.39;100.00
6829;BME280;17930;48.592;8.868;2023-05-16T06:23:32;96507.59;;;12.44;100.00
6829;BME280;17930;48.592;8.868;2023-05-16T06:26:00;96508.16;;;12.41;100.00
6829;BME280;17930;48.592;8.868;2023-05-16T06:28:27;96512.72;;;12.49;100.00
6829;BME280;17930;48.592;8.868;2023-05-16T06:30:56;96513.47;;;12.36;100.00
6829;BME280;17930;48.592;8.868;2023-05-16T06:33:22;96518.25;;;12.34;100.00
6829;BME280;17930;48.592;8.868;2023-05-16T06:35:49;96524.25;;;12.35;100.00
6829;BME280;17930;48.592;8.868;2023-05-16T06:38:17;96524.53;;;12.33;100.00
6829;BME280;17930;48.592;8.868;2023-05-16T06:40:43;96527.06;;;12.07;100.00
6829;BME280;17930;48.592;8.868;2023-05-16T06:43:10;96526.53;;;11.91;100.00
6829;BME280;17930;48.592;8.868;2023-05-16T06:45:37;96530.88;;;11.96;100.00
6829;BME280;17930;48.592;8.868;2023-05-16T06:48:06;96533.59;;;11.91;100.00
6829;BME280;17930;48.592;8.868;2023-05-16T06:50:33;96540.88;;;11.94;100.00
6829;BME280;17930;48.592;8.868;2023-05-16T06:53:00;96541.00;;;11.84;100.00
6829;BME280;17930;48.592;8.868;2023-05-16T06:55:29;96538.81;;;11.91;100.00
6829;BME280;17930;48.592;8.868;2023-05-16T06:57:55;96532.03;;;11.90;100.00
6829;BME280;17930;48.592;8.868;2023-05-16T07:00:22;96535.09;;;11.78;100.00
6829;BME280;17930;48.592;8.868;2023-05-16T07:02:49;96543.63;;;11.84;100.00
6829;BME280;17930;48.592;8.868;2023-05-16T07:05:17;96540.81;;;11.62;100.00
6829;BME280;17930;48.592;8.868;2023-05-16T07:07:44;96541.94;;;11.56;100.00
6829;BME280;17930;48.592;8.868;2023-05-16T07:10:10;96545.88;;;11.54;100.00
6829;BME280;17930;48.592;8.868;2023-05-16T07:12:40;96545.19;;;11.48;100.00
6829;BME280;17930;48.592;8.868;2023-05-16T07:15:08;96546.41;;;11.32;100.00
6829;BME280;17930;48.592;8.868;2023-05-16T07:17:35;96554.75;;;11.34;100.00
6829;BME280;17930;48.592;8.868;2023-05-16T07:20:02;96551.06;;;11.35;100.00
6829;BME280;17930;48.592;8.868;2023-05-16T07:22:31;96554.88;;;11.24;100.00
6829;BME280;17930;48.592;8.868;2023-05-16T07:24:58;96555.84;;;11.28;100.00
6829;BME280;17930;48.592;8.868;2023-05-16T07:27:25;96545.97;;;11.44;100.00
6829;BME280;17930;48.592;8.868;2023-05-16T07:29:52;96550.06;;;11.55;100.00
6829;BME280;17930;48.592;8.868;2023-05-16T07:32:19;96549.63;;;11.48;100.00
6829;BME280;17930;48.592;8.868;2023-05-16T07:34:45;96549.34;;;11.49;100.00
6829;BME280;17930;48.592;8.868;2023-05-16T07:37:12;96557.47;;;11.48;100.00
6829;BME280;17930;48.592;8.868;2023-05-16T07:39:41;96552.91;;;11.58;100.00
6829;BME280;17930;48.592;8.868;2023-05-16T07:42:08;96558.66;;;11.55;100.00
6829;BME280;17930;48.592;8.868;2023-05-16T07:44:35;96555.72;;;11.62;100.00
6829;BME280;17930;48.592;8.868;2023-05-16T07:47:02;96557.47;;;11.66;100.00
6829;BME280;17930;48.592;8.868;2023-05-16T07:49:29;96559.28;;;11.47;100.00
6829;BME280;17930;48.592;8.868;2023-05-16T07:51:55;96556.13;;;11.50;100.00
6829;BME280;17930;48.592;8.868;2023-05-16T07:54:22;96562.84;;;11.56;100.00
6829;BME280;17930;48.592;8.868;2023-05-16T07:56:50;96552.81;;;11.63;100.00
6829;BME280;17930;48.592;8.868;2023-05-16T07:59:17;96550.69;;;11.65;100.00
6829;BME280;17930;48.592;8.868;2023-05-16T08:01:43;96545.47;;;11.65;100.00
6829;BME280;17930;48.592;8.868;2023-05-16T08:04:10;96549.56;;;11.71;100.00
6829;BME280;17930;48.592;8.868;2023-05-16T08:06:37;96552.59;;;11.96;100.00
6829;BME280;17930;48.592;8.868;2023-05-16T08:09:04;96558.34;;;12.12;100.00
6829;BME280;17930;48.592;8.868;2023-05-16T08:11:30;96557.69;;;12.20;100.00
6829;BME280;17930;48.592;8.868;2023-05-16T08:13:58;96558.53;;;12.33;100.00
6829;BME280;17930;48.592;8.868;2023-05-16T08:16:25;96554.19;;;12.11;100.00
6829;BME280;17930;48.592;8.868;2023-05-16T08:18:51;96561.06;;;12.07;100.00
6829;BME280;17930;48.592;8.868;2023-05-16T08:21:18;96563.25;;;12.00;100.00
6829;BME280;17930;48.592;8.868;2023-05-16T08:23:45;96568.31;;;12.10;100.00
6829;BME280;17930;48.592;8.868;2023-05-16T08:26:11;96569.91;;;11.92;100.00
6829;BME280;17930;48.592;8.868;2023-05-16T08:28:38;96574.47;;;12.00;100.00
6829;BME280;17930;48.592;8.868;2023-05-16T08:31:06;96571.91;;;12.14;100.00
6829;BME280;17930;48.592;8.868;2023-05-16T08:33:33;96565.22;;;12.08;100.00
6829;BME280;17930;48.592;8.868;2023-05-16T08:36:00;96572.25;;;12.26;100.00
6829;BME280;17930;48.592;8.868;2023-05-16T08:38:26;96568.81;;;12.43;100.00
6829;BME280;17930;48.592;8.868;2023-05-16T08:40:53;96571.75;;;12.55;100.00
6829;BME280;17930;48.592;8.868;2023-05-16T08:43:20;96572.94;;;12.76;100.00
6829;BME280;17930;48.592;8.868;2023-05-16T08:45:47;96576.81;;;12.65;100.00
6829;BME280;17930;48.592;8.868;2023-05-16T08:48:15;96582.44;;;12.72;100.00
6829;BME280;17930;48.592;8.868;2023-05-16T08:50:42;96584.81;;;12.87;100.00
6829;BME280;17930;48.592;8.868;2023-05-16T08:53:13;96583.81;;;12.83;100.00
6829;BME280;17930;48.592;8.868;2023-05-16T08:55:41;96585.22;;;12.94;100.00
6829;BME280;17930;48.592;8.868;2023-05-16T08:58:09;96588.22;;;12.87;100.00
6829;BME280;17930;48.592;8.868;2023-05-16T09:00:37;96588.50;;;12.86;100.00
6829;BME280;17930;48.592;8.868;2023-05-16T09:03:04;96585.59;;;12.87;100.00
6829;BME280;17930;48.592;8.868;2023-05-16T09:05:33;96594.63;;;12.63;100.00
6829;BME280;17930;48.592;8.868;2023-05-16T09:08:00;96590.56;;;12.57;100.00
6829;BME280;17930;48.592;8.868;2023-05-16T09:10:26;96604.69;;;12.56;100.00
6829;BME280;17930;48.592;8.868;2023-05-16T09:12:53;96606.25;;;12.57;100.00
6829;BME280;17930;48.592;8.868;2023-05-16T09:15:20;96599.25;;;12.53;100.00
6829;BME280;17930;48.592;8.868;2023-05-16T09:17:47;96601.91;;;12.79;100.00
6829;BME280;17930;48.592;8.868;2023-05-16T09:20:16;96595.63;;;12.80;100.00
6829;BME280;17930;48.592;8.868;2023-05-16T09:22:52;96594.06;;;12.66;100.00
6829;BME280;17930;48.592;8.868;2023-05-16T09:25:19;96601.59;;;12.54;100.00
6829;BME280;17930;48.592;8.868;2023-05-16T09:27:47;96593.47;;;12.69;100.00
6829;BME280;17930;48.592;8.868;2023-05-16T09:30:14;96586.41;;;12.70;100.00
6829;BME280;17930;48.592;8.868;2023-05-16T09:32:42;96586.19;;;12.84;100.00
6829;BME280;17930;48.592;8.868;2023-05-16T09:35:10;96580.00;;;12.94;100.00
6829;BME280;17930;48.592;8.868;2023-05-16T09:37:43;96591.63;;;13.15;100.00
6829;BME280;17930;48.592;8.868;2023-05-16T09:40:12;96596.78;;;13.20;100.00
6829;BME280;17930;48.592;8.868;2023-05-16T09:42:39;96597.63;;;13.29;100.00
6829;BME280;17930;48.592;8.868;2023-05-16T09:45:06;96591.59;;;13.55;100.00
6829;BME280;17930;48.592;8.868;2023-05-16T09:47:37;96596.09;;;13.89;100.00
6829;BME280;17930;48.592;8.868;2023-05-16T09:50:11;96603.25;;;13.62;100.00
6829;BME280;17930;48.592;8.868;2023-05-16T09:52:39;96604.63;;;13.95;100.00
6829;BME280;17930;48.592;8.868;2023-05-16T09:55:06;96587.03;;;14.52;100.00
6829;BME280;17930;48.592;8.868;2023-05-16T09:57:36;96602.28;;;14.72;100.00
6829;BME280;17930;48.592;8.868;2023-05-16T10:00:04;96589.34;;;14.84;100.00
6829;BME280;17930;48.592;8.868;2023-05-16T10:02:33;96581.03;;;14.82;100.00
6829;BME280;17930;48.592;8.868;2023-05-16T10:05:00;96579.91;;;14.75;100.00
6829;BME280;17930;48.592;8.868;2023-05-16T10:07:27;96588.31;;;14.63;100.00
6829;BME280;17930;48.592;8.868;2023-05-16T10:09:57;96585.31;;;14.78;100.00
6829;BME280;17930;48.592;8.868;2023-05-16T10:12:29;96581.91;;;14.26;100.00
6829;BME280;17930;48.592;8.868;2023-05-16T10:14:59;96588.31;;;14.63;100.00
6829;BME280;17930;48.592;8.868;2023-05-16T10:17:27;96598.25;;;14.66;100.00
6829;BME280;17930;48.592;8.868;2023-05-16T10:19:57;96587.78;;;15.13;100.00
6829;BME280;17930;48.592;8.868;2023-05-16T10:22:28;96592.47;;;14.86;100.00
6829;BME280;17930;48.592;8.868;2023-05-16T10:25:05;96591.59;;;14.69;100.00
6829;BME280;17930;48.592;8.868;2023-05-16T10:27:34;96596.69;;;14.22;100.00
6829;BME280;17930;48.592;8.868;2023-05-16T10:30:03;96594.03;;;14.00;100.00
6829;BME280;17930;48.592;8.868;2023-05-16T10:32:31;96598.53;;;13.86;100.00
6829;BME280;17930;48.592;8.868;2023-05-16T10:34:58;96604.56;;;14.22;100.00
6829;BME280;17930;48.592;8.868;2023-05-16T10:37:28;96600.69;;;14.41;100.00
6829;BME280;17930;48.592;8.868;2023-05-16T10:39:55;96609.16;;;14.60;100.00
6829;BME280;17930;48.592;8.868;2023-05-16T10:42:22;96599.91;;;14.62;100.00
6829;BME280;17930;48.592;8.868;2023-05-16T10:44:52;96602.88;;;14.69;100.00
6829;BME280;17930;48.592;8.868;2023-05-16T10:47:20;96602.34;;;14.59;100.00
6829;BME280;17930;48.592;8.868;2023-05-16T10:49:47;96603.53;;;14.53;100.00
6829;BME280;17930;48.592;8.868;2023-05-16T10:52:14;96603.34;;;14.71;100.00
6829;BME280;17930;48.592;8.868;2023-05-16T10:54:48;96594.34;;;14.94;100.00
6829;BME280;17930;48.592;8.868;2023-05-16T10:57:18;96598.06;;;15.23;100.00
6829;BME280;17930;48.592;8.868;2023-05-16T10:59:49;96596.63;;;14.87;100.00
6829;BME280;17930;48.592;8.868;2023-05-16T11:02:39;96607.84;;;14.49;100.00
6829;BME280;17930;48.592;8.868;2023-05-16T11:05:12;96609.06;;;14.73;100.00
6829;BME280;17930;48.592;8.868;2023-05-16T11:07:39;96614.72;;;14.88;100.00
6829;BME280;17930;48.592;8.868;2023-05-16T11:10:08;96614.03;;;14.75;100.00
6829;BME280;17930;48.592;8.868;2023-05-16T11:12:36;96606.13;;;14.66;100.00
6829;BME280;17930;48.592;8.868;2023-05-16T11:15:17;96615.09;;;15.26;100.00
6829;BME280;17930;48.592;8.868;2023-05-16T11:17:46;96626.44;;;15.13;100.00
6829;BME280;17930;48.592;8.868;2023-05-16T11:20:26;96631.88;;;14.42;100.00
6829;BME280;17930;48.592;8.868;2023-05-16T11:23:17;96637.56;;;14.58;100.00
6829;BME280;17930;48.592;8.868;2023-05-16T11:25:45;96621.84;;;14.44;100.00
6829;BME280;17930;48.592;8.868;2023-05-16T11:28:16;96631.66;;;14.52;100.00
6829;BME280;17930;48.592;8.868;2023-05-16T11:30:44;96627.16;;;14.75;100.00
6829;BME280;17930;48.592;8.868;2023-05-16T11:33:13;96637.69;;;14.18;100.00
6829;BME280;17930;48.592;8.868;2023-05-16T11:35:40;96628.56;;;14.15;100.00
6829;BME280;17930;48.592;8.868;2023-05-16T11:38:11;96629.63;;;13.79;100.00
6829;BME280;17930;48.592;8.868;2023-05-16T11:40:41;96633.47;;;14.08;100.00
6829;BME280;17930;48.592;8.868;2023-05-16T11:43:08;96645.25;;;14.33;100.00
6829;BME280;17930;48.592;8.868;2023-05-16T11:45:36;96640.81;;;14.41;100.00
6829;BME280;17930;48.592;8.868;2023-05-16T11:48:03;96638.06;;;14.25;100.00
6829;BME280;17930;48.592;8.868;2023-05-16T11:50:33;96636.41;;;14.29;100.00
6829;BME280;17930;48.592;8.868;2023-05-16T11:53:00;96634.50;;;14.42;100.00
6829;BME280;17930;48.592;8.868;2023-05-16T11:55:28;96633.41;;;14.43;100.00
6829;BME280;17930;48.592;8.868;2023-05-16T11:57:56;96632.53;;;14.70;100.00
6829;BME280;17930;48.592;8.868;2023-05-16T12:00:25;96646.44;;;14.70;100.00
6829;BME280;17930;48.592;8.868;2023-05-16T12:02:53;96639.63;;;14.26;100.00
6829;BME280;17930;48.592;8.868;2023-05-16T12:05:20;96646.38;;;14.40;100.00
6829;BME280;17930;48.592;8.868;2023-05-16T12:07:51;96650.13;;;14.47;100.00
6829;BME280;17930;48.592;8.868;2023-05-16T12:10:19;96646.91;;;14.29;100.00
6829;BME280;17930;48.592;8.868;2023-05-16T12:12:47;96657.50;;;14.24;100.00
6829;BME280;17930;48.592;8.868;2023-05-16T12:15:16;96649.84;;;14.14;100.00
6829;BME280;17930;48.592;8.868;2023-05-16T12:17:44;96650.34;;;14.16;100.00
6829;BME280;17930;48.592;8.868;2023-05-16T12:20:12;96648.53;;;14.38;100.00
6829;BME280;17930;48.592;8.868;2023-05-16T12:22:41;96660.75;;;13.94;100.00
6829;BME280;17930;48.592;8.868;2023-05-16T12:25:24;96661.09;;;13.52;100.00
6829;BME280;17930;48.592;8.868;2023-05-16T12:27:52;96663.59;;;13.04;100.00
6829;BME280;17930;48.592;8.868;2023-05-16T12:30:22;96660.44;;;12.88;100.00
6829;BME280;17930;48.592;8.868;2023-05-16T12:32:55;96661.69;;;12.91;100.00
6829;BME280;17930;48.592;8.868;2023-05-16T12:35:22;96670.72;;;12.85;100.00
6829;BME280;17930;48.592;8.868;2023-05-16T12:37:49;96668.53;;;12.55;100.00
6829;BME280;17930;48.592;8.868;2023-05-16T12:40:16;96677.41;;;12.23;100.00
6829;BME280;17930;48.592;8.868;2023-05-16T12:42:48;96682.97;;;12.53;100.00
6829;BME280;17930;48.592;8.868;2023-05-16T12:45:15;96685.63;;;12.34;100.00
6829;BME280;17930;48.592;8.868;2023-05-16T12:47:42;96679.59;;;12.16;100.00
6829;BME280;17930;48.592;8.868;2023-05-16T12:50:10;96675.38;;;12.20;100.00
6829;BME280;17930;48.592;8.868;2023-05-16T12:52:47;96673.78;;;12.55;100.00
6829;BME280;17930;48.592;8.868;2023-05-16T12:55:15;96678.69;;;12.43;100.00
6829;BME280;17930;48.592;8.868;2023-05-16T12:57:42;96677.84;;;12.29;100.00
6829;BME280;17930;48.592;8.868;2023-05-16T13:00:12;96687.97;;;12.36;100.00
6829;BME280;17930;48.592;8.868;2023-05-16T13:02:39;96688.56;;;12.46;100.00
6829;BME280;17930;48.592;8.868;2023-05-16T13:05:06;96677.97;;;12.56;100.00